createdAt,value
2018-11-22T00:01:21.663Z,60.20
2018-11-22T00:04:04.245Z,56.70
2018-11-22T00:06:55.117Z,59.40
2018-11-22T00:09:38.410Z,55.20
2018-11-22T00:12:29.244Z,59.67
2018-11-22T00:15:20.964Z,60.87
2018-11-22T00:18:30.495Z,56.13
2018-11-22T00:21:21.373Z,56.83
2018-11-22T00:24:12.213Z,53.67
2018-11-22T00:27:03.251Z,51.47
2018-11-22T00:29:54.398Z,50.33
2018-11-22T00:32:37.360Z,55.17
2018-11-22T00:35:46.818Z,53.10
2018-11-22T00:38:29.569Z,52.87
2018-11-22T00:41:20.758Z,51.57
2018-11-22T00:44:11.732Z,51.97
2018-11-22T00:46:54.520Z,51.90
2018-11-22T00:49:45.550Z,49.97
2018-11-22T00:52:36.437Z,47.10
2018-11-22T00:55:28.238Z,49.23
2018-11-22T00:58:19.189Z,50.57
2018-11-22T01:01:10.044Z,49.07
2018-11-22T01:04:01.095Z,57.13
2018-11-22T01:06:51.958Z,58.40
2018-11-22T01:09:42.922Z,67.80
2018-11-22T01:15:30.106Z,61.47
2018-11-22T01:18:12.907Z,67.33
2018-11-22T01:21:03.772Z,65.67
2018-11-22T01:23:46.988Z,61.33
2018-11-22T01:26:56.467Z,58.37
2018-11-22T01:29:38.098Z,58.97
2018-11-22T01:32:20.922Z,60.27
2018-11-22T01:35:04.223Z,188.93
2018-11-22T01:37:55.127Z,140.93
2018-11-22T01:40:46.157Z,89.53
2018-11-22T01:43:37.204Z,79.07
2018-11-22T01:46:20.389Z,67.30
2018-11-22T01:49:29.812Z,61.23
2018-11-22T01:52:12.710Z,58.20
2018-11-22T01:55:03.764Z,51.57
2018-11-22T01:57:46.863Z,56.30
2018-11-22T02:00:37.726Z,51.53
2018-11-22T02:03:21.018Z,48.00
2018-11-22T02:06:11.858Z,48.70
2018-11-22T02:08:54.550Z,48.63
2018-11-22T02:11:45.580Z,49.07
2018-11-22T02:14:28.605Z,45.53
2018-11-22T02:17:19.448Z,45.97
2018-11-22T02:20:02.316Z,47.47
2018-11-22T02:22:53.455Z,47.40
2018-11-22T02:25:44.333Z,48.03
2018-11-22T02:28:35.364Z,47.23
2018-11-22T02:31:44.893Z,47.67
2018-11-22T02:34:35.756Z,44.47
2018-11-22T02:37:26.723Z,46.87
2018-11-22T02:40:18.909Z,52.07
2018-11-22T02:43:10.272Z,48.60
2018-11-22T02:46:19.614Z,48.93
2018-11-22T02:49:28.769Z,48.47
2018-11-22T02:55:15.877Z,50.33
2018-11-22T02:57:58.489Z,43.27
2018-11-22T03:00:49.328Z,43.10
2018-11-22T03:03:31.824Z,40.53
2018-11-22T03:06:22.674Z,45.10
2018-11-22T03:09:07.311Z,43.10
2018-11-22T03:11:58.361Z,40.53
2018-11-22T03:14:41.606Z,38.57
2018-11-22T03:17:32.522Z,39.67
2018-11-22T03:20:15.787Z,39.27
2018-11-22T03:23:25.167Z,42.43
2018-11-22T03:26:07.972Z,37.33
2018-11-22T03:28:59.054Z,39.70
2018-11-22T03:31:49.929Z,43.00
2018-11-22T03:34:41.055Z,39.90
2018-11-22T03:37:32.204Z,39.10
2018-11-22T03:40:24.649Z,36.27
2018-11-22T03:43:34.001Z,37.63
2018-11-22T03:46:25.013Z,43.77
2018-11-22T03:49:34.543Z,44.23
2018-11-22T03:52:25.592Z,42.43
2018-11-22T03:55:34.803Z,38.17
2018-11-22T03:58:17.659Z,37.90
2018-11-22T04:01:08.575Z,35.77
2018-11-22T04:03:59.444Z,35.47
2018-11-22T04:06:50.473Z,32.37
2018-11-22T04:09:41.353Z,31.00
2018-11-22T04:12:32.200Z,31.80
2018-11-22T04:15:23.357Z,33.53
2018-11-22T04:18:14.180Z,30.63
2018-11-22T04:21:05.052Z,29.90
2018-11-22T04:23:55.905Z,31.93
2018-11-22T04:26:46.808Z,31.50
2018-11-22T04:29:29.357Z,33.73
2018-11-22T04:32:20.212Z,33.47
2018-11-22T04:35:13.006Z,32.13
2018-11-22T04:38:22.360Z,32.77
2018-11-22T04:41:13.392Z,30.23
2018-11-22T04:44:04.261Z,29.87
2018-11-22T04:46:55.289Z,32.17
2018-11-22T04:49:46.163Z,33.00
2018-11-22T04:52:37.018Z,27.87
2018-11-22T04:55:27.948Z,27.83
2018-11-22T05:01:07.937Z,31.97
2018-11-22T05:03:58.850Z,31.03
2018-11-22T05:06:49.713Z,30.63
2018-11-22T05:09:40.740Z,30.77
2018-11-22T05:12:31.612Z,30.13
2018-11-22T05:15:23.821Z,31.50
2018-11-22T05:18:14.692Z,29.80
2018-11-22T05:21:05.725Z,31.63
2018-11-22T05:23:56.773Z,34.70
2018-11-22T05:26:47.624Z,33.83
2018-11-22T05:29:30.223Z,31.33
2018-11-22T05:32:21.084Z,30.27
2018-11-22T05:35:04.190Z,28.90
2018-11-22T05:37:55.307Z,29.20
2018-11-22T05:40:38.539Z,31.37
2018-11-22T05:46:37.026Z,29.93
2018-11-22T05:49:27.983Z,28.53
2018-11-22T05:52:19.012Z,29.47
2018-11-22T05:55:11.534Z,29.00
2018-11-22T05:58:02.411Z,29.77
2018-11-22T06:00:53.533Z,32.37
2018-11-22T06:03:36.571Z,29.40
2018-11-22T06:06:27.473Z,32.57
2018-11-22T06:09:11.060Z,30.20
2018-11-22T06:12:01.929Z,40.57
2018-11-22T06:14:43.485Z,41.10
2018-11-22T06:17:34.388Z,37.17
2018-11-22T06:20:18.493Z,38.33
2018-11-22T06:23:09.590Z,34.40
2018-11-22T06:25:52.248Z,35.00
2018-11-22T06:28:43.152Z,31.70
2018-11-22T06:34:22.500Z,40.63
2018-11-22T06:37:13.353Z,39.30
2018-11-22T06:40:04.213Z,43.40
2018-11-22T06:42:55.717Z,57.47
2018-11-22T06:45:45.532Z,51.17
2018-11-22T06:48:36.548Z,51.60
2018-11-22T06:51:27.696Z,57.33
2018-11-22T06:54:18.750Z,45.53
2018-11-22T06:57:09.797Z,41.93
2018-11-22T07:00:00.760Z,41.00
2018-11-22T07:05:40.968Z,38.57
2018-11-22T07:08:50.412Z,39.53
2018-11-22T07:11:41.845Z,40.60
2018-11-22T07:14:31.901Z,40.53
2018-11-22T07:17:22.798Z,42.50
2018-11-22T07:20:16.377Z,45.03
2018-11-22T07:23:07.253Z,53.47
2018-11-22T07:25:58.108Z,52.07
2018-11-22T07:28:39.777Z,52.47
2018-11-22T07:31:49.124Z,44.97
2018-11-22T07:34:31.810Z,50.73
2018-11-22T07:37:41.844Z,46.17
2018-11-22T07:40:26.455Z,43.13
2018-11-22T07:43:17.454Z,44.50
2018-11-22T07:46:00.181Z,48.03
2018-11-22T07:48:51.199Z,48.87
2018-11-22T07:51:33.000Z,48.07
2018-11-22T07:54:23.872Z,42.77
2018-11-22T07:57:06.649Z,47.83
2018-11-22T07:59:57.700Z,54.33
2018-11-22T08:02:40.760Z,51.63
2018-11-22T08:05:32.947Z,48.67
2018-11-22T08:08:23.969Z,51.33
2018-11-22T08:11:06.860Z,51.30
2018-11-22T08:13:58.006Z,47.13
2018-11-22T08:16:48.825Z,49.57
2018-11-22T08:19:31.361Z,44.67
2018-11-22T08:22:22.506Z,75.30
2018-11-22T08:25:05.612Z,74.00
2018-11-22T08:27:56.639Z,55.67
2018-11-22T08:30:47.417Z,49.60
2018-11-22T08:33:38.447Z,43.80
2018-11-22T08:36:29.494Z,44.93
2018-11-22T08:39:20.543Z,41.63
2018-11-22T08:42:11.578Z,43.43
2018-11-22T08:45:02.548Z,45.23
2018-11-22T08:47:53.465Z,44.10
2018-11-22T08:50:36.043Z,42.13
2018-11-22T08:53:26.868Z,45.30
2018-11-22T08:56:09.961Z,47.30
2018-11-22T08:59:00.804Z,38.37
2018-11-22T09:01:51.835Z,37.23
2018-11-22T09:04:42.704Z,38.60
2018-11-22T09:07:33.556Z,44.23
2018-11-22T09:10:25.276Z,42.13
2018-11-22T09:13:34.603Z,41.23
2018-11-22T09:16:43.940Z,39.47
2018-11-22T09:19:34.994Z,34.53
2018-11-22T09:22:17.893Z,36.57
2018-11-22T09:25:09.524Z,30.80
2018-11-22T09:27:52.432Z,34.90
2018-11-22T09:30:43.290Z,37.13
2018-11-22T09:33:34.138Z,34.80
2018-11-22T09:36:25.068Z,39.93
2018-11-22T09:39:34.402Z,34.43
2018-11-22T09:42:44.562Z,45.77
2018-11-22T09:45:36.948Z,48.43
2018-11-22T09:48:27.853Z,52.93
2018-11-22T09:51:18.953Z,52.37
2018-11-22T09:54:02.020Z,52.10
2018-11-22T09:56:52.915Z,44.70
2018-11-22T09:59:36.019Z,49.03
2018-11-22T10:02:27.026Z,42.57
2018-11-22T10:05:12.425Z,37.57
2018-11-22T10:08:03.160Z,34.17
2018-11-22T10:10:45.727Z,38.80
2018-11-22T10:13:36.591Z,33.40
2018-11-22T10:16:19.183Z,35.50
2018-11-22T10:19:28.605Z,35.80
2018-11-22T10:22:11.723Z,36.23
2018-11-22T10:25:02.578Z,38.33
2018-11-22T10:27:45.546Z,36.77
2018-11-22T10:30:36.585Z,35.80
2018-11-22T10:33:27.464Z,33.50
2018-11-22T10:36:18.493Z,35.83
2018-11-22T10:39:10.550Z,32.27
2018-11-22T10:42:01.569Z,29.73
2018-11-22T10:44:52.621Z,30.93
2018-11-22T10:47:44.457Z,32.30
2018-11-22T10:50:36.097Z,35.40
2018-11-22T10:53:45.628Z,26.23
2018-11-22T10:56:27.354Z,28.07
2018-11-22T10:59:18.386Z,27.63
2018-11-22T11:02:19.212Z,25.67
2018-11-22T11:05:28.323Z,27.50
2018-11-22T11:08:14.507Z,26.17
2018-11-22T11:14:11.898Z,66.93
2018-11-22T11:17:02.758Z,31.17
2018-11-22T11:19:53.779Z,32.27
2018-11-22T11:22:44.802Z,49.70
2018-11-22T11:25:35.603Z,40.80
2018-11-22T11:28:26.631Z,34.53
2018-11-22T11:31:09.286Z,22.07
2018-11-22T11:34:00.375Z,22.20
2018-11-22T11:36:43.079Z,21.80
2018-11-22T11:39:52.219Z,19.10
2018-11-22T11:42:35.134Z,10.23
2018-11-22T11:46:02.891Z,8.30
2018-11-22T11:48:45.971Z,10.97
2018-11-22T11:51:55.431Z,16.87
2018-11-22T11:54:38.615Z,8.07
2018-11-22T11:57:30.942Z,16.13
2018-11-22T12:00:15.141Z,9.43
2018-11-22T12:03:06.355Z,11.87
2018-11-22T12:05:49.108Z,7.10
2018-11-22T12:08:40.012Z,11.87
2018-11-22T12:11:22.649Z,7.63
2018-11-22T12:17:19.313Z,10.37
2018-11-22T12:20:11.473Z,6.73
2018-11-22T12:23:02.345Z,5.47
2018-11-22T12:25:53.217Z,6.70
2018-11-22T12:31:46.161Z,8.73
2018-11-22T12:34:55.361Z,6.50
2018-11-22T12:38:05.052Z,7.40
2018-11-22T12:40:56.006Z,13.43
2018-11-22T12:43:47.057Z,9.53
2018-11-22T12:46:38.147Z,6.00
2018-11-22T12:49:29.154Z,8.57
2018-11-22T12:52:20.203Z,7.83
2018-11-22T12:55:11.163Z,9.03
2018-11-22T12:58:02.033Z,7.13
2018-11-22T13:00:52.881Z,6.23
2018-11-22T13:06:32.473Z,8.53
2018-11-22T13:09:23.454Z,6.37
2018-11-22T13:12:14.521Z,7.27
2018-11-22T13:15:05.542Z,4.93
2018-11-22T13:18:15.086Z,4.97
2018-11-22T13:21:06.133Z,6.70
2018-11-22T13:23:57.179Z,8.20
2018-11-22T13:26:48.230Z,7.50
2018-11-22T13:29:30.924Z,7.57
2018-11-22T13:32:21.974Z,6.90
2018-11-22T13:35:04.799Z,7.20
2018-11-22T13:37:56.492Z,8.07
2018-11-22T13:40:39.568Z,7.50
2018-11-22T13:43:49.021Z,6.60
2018-11-22T13:46:32.009Z,7.87
2018-11-22T13:49:22.961Z,6.17
2018-11-22T13:52:05.818Z,7.53
2018-11-22T13:54:56.901Z,6.77
2018-11-22T13:57:39.983Z,7.30
2018-11-22T14:00:31.902Z,8.80
2018-11-22T14:03:22.871Z,8.17
2018-11-22T14:09:11.852Z,6.53
2018-11-22T14:11:54.586Z,6.17
2018-11-22T14:14:45.596Z,8.73
2018-11-22T14:17:28.383Z,6.20
2018-11-22T14:20:37.549Z,6.83
2018-11-22T14:23:20.110Z,9.67
2018-11-22T14:26:10.866Z,12.03
2018-11-22T14:29:01.747Z,14.43
2018-11-22T14:31:52.877Z,8.47
2018-11-22T14:34:43.656Z,8.60
2018-11-22T14:37:34.552Z,8.43
2018-11-22T14:40:21.152Z,10.43
2018-11-22T14:43:12.262Z,7.87
2018-11-22T14:45:54.989Z,11.30
2018-11-22T14:48:46.003Z,10.03
2018-11-22T14:51:47.665Z,9.03
2018-11-22T14:54:38.716Z,9.23
2018-11-22T14:57:21.867Z,8.13
2018-11-22T15:00:14.957Z,8.17
2018-11-22T15:03:05.696Z,9.70
2018-11-22T15:05:56.920Z,13.33
2018-11-22T15:08:47.972Z,11.40
2018-11-22T15:11:31.265Z,8.73
2018-11-22T15:14:22.207Z,10.50
2018-11-22T15:17:04.644Z,11.30
2018-11-22T15:19:55.477Z,10.83
2018-11-22T15:22:38.292Z,8.87
2018-11-22T15:25:30.080Z,9.33
2018-11-22T15:28:12.949Z,9.73
2018-11-22T15:31:04.023Z,9.97
2018-11-22T15:33:46.661Z,10.87
2018-11-22T15:36:56.148Z,14.73
2018-11-22T15:39:37.830Z,19.03
2018-11-22T15:42:28.908Z,18.17
2018-11-22T15:45:21.130Z,17.90
2018-11-22T15:48:12.188Z,15.97
2018-11-22T15:51:03.138Z,18.20
2018-11-22T15:53:54.190Z,15.90
2018-11-22T15:56:45.236Z,16.60
2018-11-22T15:59:36.112Z,13.63
2018-11-22T16:02:26.961Z,14.37
2018-11-22T16:05:18.420Z,15.73
2018-11-22T16:08:09.266Z,13.07
2018-11-22T16:11:00.086Z,10.83
2018-11-22T16:13:42.811Z,12.80
2018-11-22T16:16:33.735Z,13.23
2018-11-22T16:19:16.265Z,10.60
2018-11-22T16:22:07.109Z,13.03
2018-11-22T16:24:49.818Z,10.83
2018-11-22T16:27:41.026Z,11.87
2018-11-22T16:30:27.858Z,23.27
2018-11-22T16:33:18.905Z,23.17
2018-11-22T16:36:01.614Z,19.47
2018-11-22T16:38:52.464Z,24.73
2018-11-22T16:41:35.160Z,23.13
2018-11-22T16:44:26.217Z,24.70
2018-11-22T16:47:17.057Z,24.27
2018-11-22T16:50:08.678Z,24.90
2018-11-22T16:52:59.850Z,23.43
2018-11-22T16:55:50.893Z,34.07
2018-11-22T16:58:41.753Z,101.07
2018-11-22T17:01:32.606Z,59.63
2018-11-22T17:04:23.632Z,40.43
2018-11-22T17:07:33.030Z,34.20
2018-11-22T17:10:25.218Z,28.40
2018-11-22T17:13:15.990Z,30.10
2018-11-22T17:16:07.102Z,25.37
2018-11-22T17:18:57.972Z,27.13
2018-11-22T17:21:48.832Z,25.93
2018-11-22T17:24:39.679Z,27.57
2018-11-22T17:27:30.598Z,27.67
2018-11-22T17:30:39.667Z,26.87
2018-11-22T17:33:30.792Z,31.27
2018-11-22T17:36:21.676Z,38.93
2018-11-22T17:39:15.053Z,39.93
2018-11-22T17:42:06.103Z,41.57
2018-11-22T17:47:44.106Z,50.87
2018-11-22T17:50:36.801Z,53.13
2018-11-22T17:53:27.675Z,53.53
2018-11-22T17:56:18.696Z,48.17
2018-11-22T17:59:09.654Z,55.90
2018-11-22T18:02:00.499Z,87.07
2018-11-22T18:04:51.379Z,60.43
2018-11-22T18:10:57.768Z,87.80
2018-11-22T18:13:41.062Z,64.33
2018-11-22T18:16:32.064Z,63.90
2018-11-22T18:19:23.122Z,171.03
2018-11-22T18:22:06.060Z,87.37
2018-11-22T18:24:56.976Z,117.33
2018-11-22T18:28:06.192Z,73.20
2018-11-22T18:30:57.145Z,73.50
2018-11-22T18:33:39.830Z,74.17
2018-11-22T18:36:30.701Z,80.27
2018-11-22T18:39:13.239Z,71.67
2018-11-22T18:42:22.716Z,52.83
2018-11-22T18:45:05.583Z,43.93
2018-11-22T18:47:56.801Z,43.77
2018-11-22T18:50:48.201Z,46.57
2018-11-22T18:53:30.719Z,48.03
2018-11-22T18:59:36.298Z,42.63
2018-11-22T19:02:18.978Z,41.93
2018-11-22T19:05:11.209Z,46.00
2018-11-22T19:07:54.984Z,49.37
2018-11-22T19:10:46.235Z,51.23
2018-11-22T19:13:27.881Z,127.20
2018-11-22T19:16:18.721Z,140.67
2018-11-22T19:19:01.291Z,174.33
2018-11-22T19:21:52.341Z,77.47
2018-11-22T19:24:35.012Z,52.40
2018-11-22T19:27:26.090Z,50.37
2018-11-22T19:30:16.449Z,48.40
2018-11-22T19:33:08.964Z,48.17
2018-11-22T19:35:53.748Z,48.37
2018-11-22T19:38:44.772Z,49.20
2018-11-22T19:41:27.667Z,57.40
2018-11-22T19:44:18.535Z,63.93
2018-11-22T19:47:01.548Z,64.60
2018-11-22T19:55:50.405Z,57.10
2018-11-22T19:58:32.871Z,54.77
2018-11-22T20:01:23.928Z,53.97
2018-11-22T20:04:14.980Z,47.17
2018-11-22T20:07:24.337Z,46.03
2018-11-22T20:10:34.282Z,44.67
2018-11-22T20:13:25.087Z,45.10
2018-11-22T20:16:16.136Z,42.33
2018-11-22T20:19:07.209Z,41.93
2018-11-22T20:24:46.133Z,40.30
2018-11-22T20:27:37.490Z,41.00
2018-11-22T20:30:31.381Z,48.07
2018-11-22T20:33:22.435Z,46.83
2018-11-22T20:36:04.092Z,50.57
2018-11-22T20:38:55.094Z,54.90
2018-11-22T20:41:38.222Z,60.07
2018-11-22T20:44:29.329Z,68.13
2018-11-22T20:47:12.040Z,59.57
2018-11-22T20:50:02.902Z,61.10
2018-11-22T20:52:44.907Z,54.80
2018-11-22T20:55:36.906Z,59.07
2018-11-22T20:58:19.529Z,58.70
2018-11-22T21:01:10.375Z,58.30
2018-11-22T21:03:53.272Z,61.60
2018-11-22T21:06:44.302Z,59.83
2018-11-22T21:09:27.338Z,62.10
2018-11-22T21:12:18.435Z,74.50
2018-11-22T21:15:00.856Z,83.47
2018-11-22T21:17:52.872Z,89.63
2018-11-22T21:20:37.131Z,90.93
2018-11-22T21:26:42.753Z,89.77
2018-11-22T21:29:25.999Z,81.93
2018-11-22T21:32:16.939Z,81.47
2018-11-22T21:35:08.304Z,145.23
2018-11-22T21:38:00.150Z,94.47
2018-11-22T21:40:51.093Z,101.27
2018-11-22T21:43:42.145Z,104.47
2018-11-22T21:46:33.881Z,104.30
2018-11-22T21:49:24.753Z,96.37
2018-11-22T21:52:15.883Z,86.13
2018-11-22T21:55:07.485Z,71.60
2018-11-22T21:57:50.794Z,61.00
2018-11-22T22:00:42.840Z,57.40
2018-11-22T22:03:33.884Z,60.77
2018-11-22T22:06:24.836Z,64.57
2018-11-22T22:09:15.884Z,96.30
2018-11-22T22:12:06.934Z,90.03
2018-11-22T22:14:57.985Z,85.10
2018-11-22T22:17:49.133Z,77.17
2018-11-22T22:20:40.009Z,68.73
2018-11-22T22:26:32.480Z,59.17
2018-11-22T22:29:15.590Z,56.27
2018-11-22T22:32:06.470Z,57.07
2018-11-22T22:34:57.429Z,53.60
2018-11-22T22:37:48.442Z,51.30
2018-11-22T22:40:39.496Z,52.23
2018-11-22T22:43:30.369Z,63.63
2018-11-22T22:46:21.317Z,70.23
2018-11-22T22:49:12.343Z,61.27
2018-11-22T22:52:03.244Z,60.27
2018-11-22T22:54:54.178Z,61.10
2018-11-22T23:00:41.655Z,71.30
2018-11-22T23:03:33.000Z,116.87
2018-11-22T23:06:15.533Z,130.13
2018-11-22T23:09:09.316Z,136.73
2018-11-22T23:11:51.842Z,112.47
2018-11-22T23:15:01.185Z,105.17
2018-11-22T23:17:44.247Z,114.70
2018-11-22T23:20:36.358Z,108.67
2018-11-22T23:23:19.233Z,107.60
2018-11-22T23:26:28.766Z,97.63
2018-11-22T23:29:11.274Z,94.13
2018-11-22T23:32:02.143Z,86.83
2018-11-22T23:34:53.004Z,71.47
2018-11-22T23:37:44.114Z,65.37
2018-11-22T23:40:35.652Z,65.73
2018-11-22T23:46:40.872Z,57.70
2018-11-22T23:49:22.552Z,57.87
2018-11-22T23:52:13.491Z,59.37
2018-11-22T23:54:56.840Z,56.77
2018-11-22T23:57:47.579Z,56.37
